• Join FlightAware (Why Join?)
  • Login
  • US Flag 
03:25AM EDT


 

Airport Tracker/Info


-or-


 

Live Flight TrackerFlight Track Log ✈ ASH3735 ✈ 23-Jun-2013 ✈ KORD - KBTV

Flight Track Log - Related Links

Times and Time Zones

All times are in EDT time to prevent confusion due to time zone crossing. See the ASH3735 flight status page for this flight to view local times or setup timezone preferences in your user account.

Time Position Orientation Groundspeed Altitude Reporting Facility
EDT Latitude Longitude Course Direction KTS MPH feet Rate Location/Type
10:47PM 41.9692 -87.8511 86° East 170 196 2,100  Level Chicago Center
10:48PM 41.9692 -87.7581 90° East 259 298 3,900 2,220 Climbing Chicago Center
10:49PM 41.9794 -87.6511 83° East 283 326 6,700 2,640 Climbing Chicago Center
10:50PM 42.1740 -87.3283 66° East  Level FlightAware Approximate
10:50PM 41.9947 -87.5467 79° East 286 329 9,300  Level Chicago Center
10:51PM 42.2233 -87.1801 66° East  Level FlightAware Approximate
10:51PM 42.0128 -87.4156 79° East 298 343 12,400  Level Chicago Center
10:52PM 42.2667 -87.0301 90° East  Level FlightAware Approximate
10:52PM 42.0275 -87.2983 80° East 320 368 14,000  Level Chicago Center
10:53PM 42.2725 -86.8792 86° East  Level FlightAware Approximate
10:54PM 42.0456 -87.1572 80° East 388 447 14,000  Level Chicago Center
10:55PM 42.0658 -87.0119 79° East 397 457 14,700 1,140 Climbing Chicago Center
10:56PM 42.0856 -86.8606 80° East 407 468 16,400 1,860 Climbing Chicago Center
10:57PM 42.1072 -86.6842 81° East 417 480 18,600 1,860 Climbing Chicago Center
10:58PM 42.1225 -86.5511 81° East 420 483 20,300 1,680 Climbing Chicago Center
10:59PM 42.1414 -86.3997 80° East 412 474 22,100 1,560 Climbing Chicago Center
11:00PM 42.1600 -86.2458 81° East 416 479 23,500 1,560 Climbing Chicago Center
11:01PM 42.1825 -86.0556 81° East 425 489 25,300 1,200 Climbing Chicago Center
11:02PM 42.1994 -85.9086 81° East 430 495 26,000 840 Climbing Chicago Center
11:03PM 42.2186 -85.7458 81° East 441 507 27,100 1,020 Climbing Chicago Center
11:04PM 42.2389 -85.5789 81° East 452 520 28,200 1,260 Climbing Chicago Center
11:05PM 42.2572 -85.4108 82° East 455 524 29,700 840 Climbing Chicago Center
11:06PM 42.2814 -85.2081 81° East 461 531 30,000 240 Climbing Chicago Center
11:07PM 42.2994 -85.0344 82° East 468 539 30,300 720 Climbing Chicago Center
11:08PM 42.2961 -84.8611 91° East 467 537 31,500 1,140 Climbing Chicago Center
11:09PM 42.2925 -84.6914 92° East 456 525 32,700 1,140 Climbing Chicago Center
11:10PM 42.2886 -84.5242 92° East 449 517 33,900 1,200 Climbing Chicago Center
11:11PM 42.3028 -84.3456 84° East 443 510 35,200 1,260 Climbing Cleveland Center
11:12PM 42.3244 -84.1894 79° East 429 494 36,500 900 Climbing Cleveland Center
11:13PM 42.3458 -84.0389 79° East 423 487 37,000 240 Climbing Cleveland Center
11:14PM 42.3589 -83.8767 84° East 423 487 37,000  Level Cleveland Center
11:15PM 42.3675 -83.7111 86° East 428 493 37,000  Level Cleveland Center
11:16PM 42.3736 -83.5597 87° East 433 498 37,000  Level Cleveland Center
11:17PM 42.3800 -83.3969 87° East 448 516 37,000  Level Cleveland Center
11:18PM 42.3881 -83.2286 86° East 443 510 37,000  Level Cleveland Center
11:19PM 42.3961 -83.0603 86° East 443 510 37,000  Level Cleveland Center
11:20PM 42.4036 -82.8944 86° East 437 503 37,000  Level Cleveland Center
11:21PM 42.4089 -82.7317 87° East 437 503 37,000  Level Cleveland Center
11:22PM 42.4139 -82.5631 88° East 437 503 37,000  Level Cleveland Center
11:23PM 42.4208 -82.3972 87° East 437 503 37,000  Level Cleveland Center
11:24PM 42.4256 -82.2314 88° East 437 503 37,000  Level Cleveland Center
11:25PM 42.4342 -82.0489 86° East 437 503 37,000  Level Cleveland Center
11:26PM 42.4403 -81.8831 87° East 442 509 37,000  Level Cleveland Center
11:27PM 42.4442 -81.7311 88° East 442 509 37,000  Level Cleveland Center
11:28PM 42.4497 -81.5681 87° East 442 509 37,000  Level Cleveland Center
11:29PM 42.4531 -81.3992 88° East 445 512 37,000  Level Cleveland Center
11:30PM 42.4583 -81.2333 87° East 440 506 37,000  Level Cleveland Center
11:31PM 42.4614 -81.0700 88° East 440 506 37,000  Level Cleveland Center
11:32PM 42.4681 -80.8872 87° East 440 506 37,000  Level Cleveland Center
11:33PM 42.4706 -80.7211 89° East 440 506 37,000  Level Cleveland Center
11:34PM 42.4728 -80.5522 89° East 441 507 37,000  Level Cleveland Center
11:35PM 42.4767 -80.3861 88° East 441 507 37,000  Level Cleveland Center
11:36PM 42.4867 -80.2256 85° East 436 502 37,000  Level Cleveland Center
11:37PM 42.5319 -80.0647 69° East 441 507 37,000  Level Cleveland Center
11:38PM 42.5833 -79.9119 65° Northeast 442 509 37,000  Level Cleveland Center
11:39PM 42.6322 -79.7564 67° East 442 509 37,000  Level Cleveland Center
11:40PM 42.6833 -79.6031 66° East 442 509 37,000  Level Cleveland Center
11:41PM 42.7339 -79.4469 66° East 442 509 37,000  Level Cleveland Center
11:42PM 42.7844 -79.2875 67° East 442 509 37,000  Level Cleveland Center
11:43PM 42.8325 -79.1308 67° East 442 509 37,000  Level Cleveland Center
11:44PM 42.8867 -78.9681 66° East 448 516 37,000  Level Cleveland Center
11:45PM 42.9364 -78.8053 67° East 454 522 37,000  Level Cleveland Center
11:46PM 42.9858 -78.6419 67° East 459 528 37,000  Level Cleveland Center
11:47PM 43.0372 -78.4814 66° East 459 528 37,000  Level Cleveland Center
11:48PM 43.0883 -78.3175 67° East 459 528 37,000  Level Cleveland Center
11:49PM 43.1392 -78.1533 67° East 459 528 37,000  Level Cleveland Center
11:50PM 43.1875 -77.9864 68° East 459 528 37,000  Level Cleveland Center
11:52PM 43.2881 -77.6525 67° East 527 606 37,000  Level Boston Center
11:53PM 43.3394 -77.4828 67° East 492 566 37,000  Level Boston Center
11:54PM 43.3886 -77.3125 68° East 479 551 37,000  Level Boston Center
11:55PM 43.4417 -77.1422 67° East 479 551 37,000  Level Boston Center
11:56PM 43.4903 -76.9683 69° East 479 551 37,000  Level Boston Center
11:57PM 43.5383 -76.8028 68° East 484 557 37,000  Level Boston Center
11:58PM 43.5908 -76.6317 67° East 484 557 37,000  Level Boston Center
11:59PM 43.6386 -76.4628 69° East 484 557 37,000 -120 Level Boston Center
12:00AM 43.6861 -76.2908 69° East 484 557 36,800 -420 Descending Boston Center
12:01AM 43.7356 -76.1186 68° East 484 557 36,200 -1,080 Descending Boston Center
12:02AM 43.7847 -75.9431 69° East 484 557 34,700 -1,800 Descending Boston Center
12:03AM 43.8317 -75.7675 70° East 484 557 32,700 -2,100 Descending Boston Center
12:04AM 43.8828 -75.5886 68° East 489 563 30,600 -2,100 Descending Boston Center
12:05AM 43.9358 -75.3925 69° East 489 563 28,600 -2,100 Descending Boston Center
12:06AM 43.9842 -75.2103 70° East 489 563 26,500 -2,160 Descending Boston Center
12:07AM 44.0297 -75.0392 70° East 489 563 24,300 -2,220 Descending Boston Center
12:08AM 44.0772 -74.8678 69° East 478 550 22,100 -2,220 Descending Boston Center
12:09AM 44.1183 -74.7017 71° East 462 532 19,900 -2,220 Descending Boston Center
12:10AM 44.1853 -74.5681 55° Northeast 436 502 17,700 -2,280 Descending Boston Center
12:11AM 44.2544 -74.4400 53° Northeast 418 481 15,400 -2,280 Descending Boston Center
12:12AM 44.3189 -74.3144 54° Northeast 408 470 13,200 -2,220 Descending Boston Center
12:13AM 44.3814 -74.1917 55° Northeast 390 449 11,000 -1,680 Descending Boston Center
12:14AM 44.4331 -74.0825 56° Northeast 366 421 9,900 -1,200 Descending Boston Center
12:15AM 44.4864 -73.9822 53° Northeast 330 380 8,600 -1,260 Descending Boston Center
12:16AM 44.5314 -73.8817 58° Northeast 308 354 7,400 -1,260 Descending Boston Center
12:17AM 44.5683 -73.7747 64° Northeast 300 345 6,100 -720 Descending Boston Center
12:18AM 44.5881 -73.6731 75° East 281 323 6,000 -60 Descending Boston Center
12:19AM 44.6100 -73.5686 74° East 281 323 6,000 -360 Level Boston Center
12:20AM 44.6131 -73.4667 88° East 274 315 5,300 -900 Descending Boston Center
12:21AM 44.6033 -73.3789 99° East 261 300 4,200 -1,080 Descending Boston Center
12:22AM 44.5725 -73.3142 124° Southeast 219 252 3,200 -1,200 Descending Boston Center
12:23AM 44.5356 -73.2556 131° Southeast 203 234 1,900 -1,080 Descending Boston Center
12:24AM 44.5067 -73.2086 131° Southeast 175 201 1,100 -780 Descending Boston Center
12:25AM 44.4839 -73.1733 132° Southeast 138 159 400 -420 Descending Boston Center
12:26AM 44.4694 -73.1497 131° Southeast 82 94 300 -60 Descending Boston Center
12:27AM 44.4675 -73.1528 228° Southwest 31 36 300  Level Boston Center